createdAt,value
2019-05-25T00:00:08.994Z,13.40
2019-05-25T00:02:45.121Z,13.40
2019-05-25T00:05:21.337Z,13.30
2019-05-25T00:07:57.455Z,13.30
2019-05-25T00:10:33.597Z,13.30
2019-05-25T00:13:09.812Z,13.20
2019-05-25T00:15:45.963Z,13.20
2019-05-25T00:18:22.149Z,13.20
2019-05-25T00:20:58.398Z,13.10
2019-05-25T00:23:34.626Z,13.10
2019-05-25T00:26:10.890Z,13.10
2019-05-25T00:28:47.126Z,13.00
2019-05-25T00:31:23.452Z,13.00
2019-05-25T00:33:59.589Z,12.90
2019-05-25T00:36:35.778Z,12.90
2019-05-25T00:39:12.005Z,12.90
2019-05-25T00:41:48.323Z,12.80
2019-05-25T00:44:24.547Z,12.80
2019-05-25T00:47:00.724Z,12.70
2019-05-25T00:49:36.937Z,12.70
2019-05-25T00:52:13.119Z,12.70
2019-05-25T00:54:49.264Z,12.70
2019-05-25T00:57:25.539Z,12.70
2019-05-25T01:00:01.707Z,12.50
2019-05-25T01:02:39.884Z,12.40
2019-05-25T01:05:16.178Z,12.20
2019-05-25T01:07:52.395Z,12.10
2019-05-25T01:10:28.665Z,12.00
2019-05-25T01:13:05.021Z,12.00
2019-05-25T01:15:41.250Z,12.00
2019-05-25T01:18:17.436Z,12.00
2019-05-25T01:20:53.577Z,12.00
2019-05-25T01:23:29.761Z,12.00
2019-05-25T01:26:05.983Z,12.10
2019-05-25T01:28:42.169Z,12.10
2019-05-25T01:31:18.404Z,12.10
2019-05-25T01:33:54.580Z,12.20
2019-05-25T01:36:30.762Z,12.20
2019-05-25T01:39:07.583Z,12.20
2019-05-25T01:41:43.841Z,12.10
2019-05-25T01:44:20.581Z,12.20
2019-05-25T01:46:56.749Z,12.30
2019-05-25T01:49:32.978Z,12.30
2019-05-25T01:52:09.162Z,12.30
2019-05-25T01:54:58.933Z,12.40
2019-05-25T01:57:23.189Z,12.40
2019-05-25T01:59:59.362Z,12.30
2019-05-25T02:02:35.512Z,12.30
2019-05-25T02:05:11.712Z,12.20
2019-05-25T02:07:47.929Z,12.10
2019-05-25T02:10:24.109Z,12.00
2019-05-25T02:13:00.616Z,12.00
2019-05-25T02:15:37.006Z,11.90
2019-05-25T02:18:13.186Z,11.70
2019-05-25T02:20:49.295Z,11.70
2019-05-25T02:23:25.549Z,11.70
2019-05-25T02:26:01.765Z,11.70
2019-05-25T02:28:38.023Z,11.60
2019-05-25T02:31:14.173Z,11.70
2019-05-25T02:33:50.354Z,11.60
2019-05-25T02:36:26.614Z,11.60
2019-05-25T02:39:04.431Z,11.60
2019-05-25T02:41:40.604Z,11.60
2019-05-25T02:44:16.787Z,11.70
2019-05-25T02:46:53.001Z,11.70
2019-05-25T02:49:29.244Z,11.70
2019-05-25T02:52:05.411Z,11.70
2019-05-25T02:54:41.588Z,11.70
2019-05-25T02:57:17.827Z,11.70
2019-05-25T02:59:54.075Z,11.70
2019-05-25T03:02:30.289Z,11.70
2019-05-25T03:05:11.946Z,11.60
2019-05-25T03:07:49.276Z,11.60
2019-05-25T03:10:27.617Z,11.50
2019-05-25T03:13:04.961Z,11.50
2019-05-25T03:15:41.154Z,11.40
2019-05-25T03:18:17.402Z,11.40
2019-05-25T03:20:53.550Z,11.40
2019-05-25T03:23:29.821Z,11.30
2019-05-25T03:26:06.020Z,11.30
2019-05-25T03:28:42.198Z,11.20
2019-05-25T03:31:18.419Z,11.10
2019-05-25T03:33:54.667Z,11.10
2019-05-25T03:36:30.878Z,11.10
2019-05-25T03:39:08.141Z,11.10
2019-05-25T03:41:44.271Z,11.10
2019-05-25T03:44:20.456Z,11.00
2019-05-25T03:46:56.598Z,11.10
2019-05-25T03:49:32.853Z,11.00
2019-05-25T03:52:09.076Z,11.00
2019-05-25T03:54:45.315Z,11.00
2019-05-25T03:57:21.492Z,11.00
2019-05-25T03:59:57.680Z,11.00
2019-05-25T04:02:33.837Z,11.00
2019-05-25T04:05:10.107Z,11.00
2019-05-25T04:07:46.279Z,11.00
2019-05-25T04:10:22.348Z,11.10
2019-05-25T04:12:58.595Z,11.10
2019-05-25T04:15:34.769Z,11.10
2019-05-25T04:18:10.915Z,11.20
2019-05-25T04:20:47.167Z,11.20
2019-05-25T04:23:23.385Z,11.20
2019-05-25T04:25:59.572Z,11.20
2019-05-25T04:28:35.792Z,11.20
2019-05-25T04:31:12.033Z,11.10
2019-05-25T04:33:48.281Z,11.00
2019-05-25T04:36:26.152Z,10.90
2019-05-25T04:39:02.370Z,10.90
2019-05-25T04:41:38.564Z,10.80
2019-05-25T04:44:14.844Z,10.70
2019-05-25T04:46:51.029Z,10.70
2019-05-25T04:49:27.240Z,10.70
2019-05-25T04:52:03.484Z,10.70
2019-05-25T04:54:39.771Z,10.80
2019-05-25T04:57:35.269Z,10.80
2019-05-25T05:00:11.810Z,11.00
2019-05-25T05:02:48.026Z,11.40
2019-05-25T05:05:24.274Z,11.70
2019-05-25T05:08:00.377Z,12.00
2019-05-25T05:10:36.560Z,12.30
2019-05-25T05:18:48.119Z,12.70
2019-05-25T05:21:24.310Z,12.80
2019-05-25T05:24:00.458Z,12.90
2019-05-25T05:26:36.730Z,12.90
2019-05-25T05:29:12.976Z,13.00
2019-05-25T05:31:49.205Z,13.10
2019-05-25T05:34:25.467Z,13.30
2019-05-25T05:37:02.828Z,13.60
2019-05-25T05:39:40.095Z,14.00
2019-05-25T05:42:18.957Z,14.40
2019-05-25T05:44:57.479Z,14.30
2019-05-25T05:47:35.611Z,14.20
2019-05-25T05:50:11.881Z,14.30
2019-05-25T05:52:51.159Z,14.50
2019-05-25T05:55:31.674Z,14.90
2019-05-25T05:58:07.880Z,15.10
2019-05-25T06:00:43.911Z,15.30
2019-05-25T06:03:20.399Z,15.60
2019-05-25T06:05:56.571Z,16.20
2019-05-25T06:08:32.792Z,16.50
2019-05-25T06:11:08.892Z,16.60
2019-05-25T06:13:45.045Z,16.20
2019-05-25T06:16:21.468Z,15.70
2019-05-25T06:18:57.553Z,15.40
2019-05-25T06:21:33.721Z,14.90
2019-05-25T06:24:09.872Z,14.70
2019-05-25T06:26:46.193Z,14.40
2019-05-25T06:29:22.401Z,14.40
2019-05-25T06:31:58.579Z,14.00
2019-05-25T06:34:34.811Z,13.90
2019-05-25T06:37:11.043Z,13.80
2019-05-25T06:39:47.261Z,13.50
2019-05-25T06:42:23.511Z,13.10
2019-05-25T06:44:59.668Z,13.10
2019-05-25T06:47:35.860Z,13.20
2019-05-25T06:50:12.122Z,13.30
2019-05-25T06:52:48.368Z,13.30
2019-05-25T06:55:24.586Z,13.20
2019-05-25T06:58:00.875Z,13.20
2019-05-25T07:00:37.077Z,13.10
2019-05-25T07:03:13.246Z,13.00
2019-05-25T07:05:49.466Z,12.90
2019-05-25T07:08:25.652Z,12.90
2019-05-25T07:11:01.876Z,13.00
2019-05-25T07:13:37.917Z,13.00
2019-05-25T07:16:14.066Z,12.80
2019-05-25T07:18:50.312Z,12.90
2019-05-25T07:21:26.427Z,13.00
2019-05-25T07:24:02.665Z,13.40
2019-05-25T07:26:38.892Z,13.50
2019-05-25T07:29:15.163Z,13.60
2019-05-25T07:31:51.382Z,13.80
2019-05-25T07:34:27.547Z,13.50
2019-05-25T07:37:03.704Z,13.40
2019-05-25T07:39:39.885Z,13.60
2019-05-25T07:42:16.053Z,13.80
2019-05-25T07:44:52.240Z,14.00
2019-05-25T07:47:28.372Z,14.00
2019-05-25T07:50:10.077Z,14.10
2019-05-25T07:52:46.271Z,13.70
2019-05-25T07:55:22.510Z,13.60
2019-05-25T07:58:15.202Z,13.50
2019-05-25T08:00:36.525Z,13.40
2019-05-25T08:03:12.662Z,13.50
2019-05-25T08:05:48.843Z,13.30
2019-05-25T08:08:25.070Z,13.00
2019-05-25T08:11:01.319Z,13.70
2019-05-25T08:13:37.463Z,14.10
2019-05-25T08:16:13.711Z,14.20
2019-05-25T08:18:49.873Z,14.00
2019-05-25T08:21:26.120Z,14.40
2019-05-25T08:24:02.373Z,14.70
2019-05-25T08:26:38.584Z,15.10
2019-05-25T08:29:14.779Z,15.30
2019-05-25T08:31:51.034Z,15.10
2019-05-25T08:34:27.302Z,15.30
2019-05-25T08:37:03.569Z,16.00
2019-05-25T08:39:39.821Z,16.50
2019-05-25T08:42:16.081Z,17.10
2019-05-25T08:44:52.301Z,17.30
2019-05-25T08:47:28.484Z,17.50
2019-05-25T08:50:06.303Z,17.30
2019-05-25T08:52:42.556Z,17.10
2019-05-25T08:55:18.819Z,17.60
2019-05-25T08:57:54.976Z,17.90
2019-05-25T09:00:31.270Z,17.90
2019-05-25T09:03:07.911Z,18.10
2019-05-25T09:05:44.164Z,18.40
2019-05-25T09:08:20.416Z,18.90
2019-05-25T09:10:56.651Z,18.80
2019-05-25T09:13:32.894Z,19.40
2019-05-25T09:16:09.153Z,18.90
2019-05-25T09:18:45.276Z,18.40
2019-05-25T09:21:21.465Z,18.30
2019-05-25T09:23:57.660Z,18.30
2019-05-25T09:26:33.919Z,18.60
2019-05-25T09:29:10.831Z,18.40
2019-05-25T09:31:47.011Z,18.00
2019-05-25T09:34:23.166Z,18.40
2019-05-25T09:36:59.340Z,19.10
2019-05-25T09:39:35.548Z,19.80
2019-05-25T09:42:11.714Z,19.60
2019-05-25T09:44:47.945Z,19.10
2019-05-25T09:47:24.188Z,18.80
2019-05-25T09:50:00.293Z,18.00
2019-05-25T09:52:36.505Z,18.60
2019-05-25T09:55:13.448Z,18.60
2019-05-25T09:57:49.605Z,17.90
2019-05-25T10:00:25.943Z,18.00
2019-05-25T10:03:02.085Z,17.40
2019-05-25T10:05:38.324Z,17.50
2019-05-25T10:08:14.390Z,18.00
2019-05-25T10:10:50.500Z,18.50
2019-05-25T10:13:26.646Z,19.10
2019-05-25T10:16:02.868Z,19.10
2019-05-25T10:18:39.069Z,19.40
2019-05-25T10:21:15.221Z,19.60
2019-05-25T10:23:51.384Z,20.10
2019-05-25T10:26:27.554Z,19.60
2019-05-25T10:29:03.761Z,19.40
2019-05-25T10:31:40.005Z,19.20
2019-05-25T10:34:16.224Z,19.60
2019-05-25T10:36:52.431Z,19.20
2019-05-25T10:39:28.656Z,19.70
2019-05-25T10:42:05.004Z,20.20
2019-05-25T10:44:41.223Z,20.20
2019-05-25T10:47:17.472Z,19.60
2019-05-25T10:49:53.621Z,19.50
2019-05-25T10:52:29.871Z,19.40
2019-05-25T10:55:08.822Z,18.80
2019-05-25T10:57:45.087Z,18.90
2019-05-25T11:00:21.803Z,18.80
2019-05-25T11:02:58.328Z,18.60
2019-05-25T11:05:34.577Z,18.00
2019-05-25T11:08:10.824Z,17.90
2019-05-25T11:10:47.038Z,17.80
2019-05-25T11:13:23.305Z,17.60
2019-05-25T11:15:59.517Z,17.60
2019-05-25T11:18:35.789Z,17.60
2019-05-25T11:21:11.941Z,17.80
2019-05-25T11:23:48.194Z,17.60
2019-05-25T11:26:24.336Z,17.90
2019-05-25T11:29:00.520Z,17.20
2019-05-25T11:31:36.681Z,16.60
2019-05-25T11:34:12.936Z,16.90
2019-05-25T11:36:49.086Z,17.40
2019-05-25T11:39:25.331Z,17.80
2019-05-25T11:42:01.539Z,18.00
2019-05-25T11:44:37.736Z,18.50
2019-05-25T11:47:13.955Z,18.40
2019-05-25T11:49:50.138Z,19.10
2019-05-25T11:52:26.347Z,18.80
2019-05-25T11:55:02.530Z,19.00
2019-05-25T11:57:38.742Z,19.10
2019-05-25T12:00:24.997Z,19.20
2019-05-25T12:02:55.880Z,20.00
2019-05-25T12:05:32.119Z,20.00
2019-05-25T12:08:08.250Z,20.10
2019-05-25T12:10:44.433Z,19.90
2019-05-25T12:13:20.604Z,19.70
2019-05-25T12:15:56.784Z,19.20
2019-05-25T12:18:32.919Z,19.00
2019-05-25T12:21:09.117Z,19.00
2019-05-25T12:23:45.327Z,18.10
2019-05-25T12:26:21.572Z,18.00
2019-05-25T12:28:57.825Z,18.20
2019-05-25T12:31:34.001Z,18.60
2019-05-25T12:34:10.227Z,18.70
2019-05-25T12:36:46.475Z,18.90
2019-05-25T12:39:26.452Z,18.20
2019-05-25T12:42:00.641Z,18.20
2019-05-25T12:44:36.932Z,18.60
2019-05-25T12:47:13.283Z,18.40
2019-05-25T12:49:51.247Z,18.20
2019-05-25T12:52:27.495Z,17.90
2019-05-25T12:55:04.663Z,18.30
2019-05-25T12:57:40.880Z,18.80
2019-05-25T13:00:17.354Z,18.80
2019-05-25T13:02:53.586Z,19.00
2019-05-25T13:05:34.257Z,19.40
2019-05-25T13:08:07.660Z,19.30
2019-05-25T13:10:43.845Z,19.40
2019-05-25T13:13:20.061Z,19.10
2019-05-25T13:15:56.324Z,19.30
2019-05-25T13:18:32.535Z,19.20
2019-05-25T13:21:08.787Z,19.30
2019-05-25T13:23:44.924Z,19.50
2019-05-25T13:26:21.175Z,19.30
2019-05-25T13:28:57.386Z,19.10
2019-05-25T13:31:33.559Z,19.00
2019-05-25T13:34:09.770Z,19.00
2019-05-25T13:36:46.342Z,19.20
2019-05-25T13:39:22.604Z,19.40
2019-05-25T13:41:58.772Z,19.10
2019-05-25T13:44:35.018Z,19.20
2019-05-25T13:47:11.227Z,19.30
2019-05-25T13:49:47.467Z,19.00
2019-05-25T13:52:23.646Z,19.00
2019-05-25T13:54:59.901Z,19.20
2019-05-25T13:57:36.052Z,19.30
2019-05-25T14:00:13.478Z,19.30
2019-05-25T14:02:49.751Z,18.90
2019-05-25T14:05:26.004Z,18.50
2019-05-25T14:08:02.223Z,18.50
2019-05-25T14:10:38.472Z,18.70
2019-05-25T14:13:14.542Z,19.00
2019-05-25T14:16:05.734Z,18.80
2019-05-25T14:18:28.639Z,18.50
2019-05-25T14:21:05.169Z,18.60
2019-05-25T14:23:41.312Z,18.50
2019-05-25T14:26:17.485Z,18.60
2019-05-25T14:28:53.687Z,18.70
2019-05-25T14:31:44.352Z,18.70
2019-05-25T14:34:07.730Z,18.30
2019-05-25T14:36:44.288Z,18.20
2019-05-25T14:39:20.505Z,18.20
2019-05-25T14:41:56.771Z,18.30
2019-05-25T14:44:33.105Z,18.00
2019-05-25T14:47:09.250Z,18.10
2019-05-25T14:49:45.560Z,18.00
2019-05-25T14:52:21.806Z,17.90
2019-05-25T14:54:58.040Z,17.70
2019-05-25T14:57:34.354Z,17.80
2019-05-25T15:00:12.543Z,17.80
2019-05-25T15:02:48.788Z,17.70
2019-05-25T15:05:24.967Z,17.70
2019-05-25T15:08:01.258Z,17.90
2019-05-25T15:10:37.561Z,17.90
2019-05-25T15:13:13.808Z,17.90
2019-05-25T15:15:50.496Z,17.60
2019-05-25T15:18:26.706Z,17.50
2019-05-25T15:21:04.513Z,17.50
2019-05-25T15:23:40.762Z,17.80
2019-05-25T15:26:16.998Z,17.60
2019-05-25T15:28:53.134Z,17.60
2019-05-25T15:31:29.392Z,17.70
2019-05-25T15:34:05.539Z,17.70
2019-05-25T15:36:41.715Z,17.80
2019-05-25T15:39:17.962Z,17.60
2019-05-25T15:41:54.034Z,17.60
2019-05-25T15:44:30.293Z,17.40
2019-05-25T15:47:06.529Z,17.30
2019-05-25T15:49:42.768Z,17.40
2019-05-25T15:52:19.016Z,17.20
2019-05-25T15:54:55.223Z,17.20
2019-05-25T15:57:31.477Z,17.20
2019-05-25T16:00:17.129Z,17.20
2019-05-25T16:02:53.305Z,17.20
2019-05-25T16:05:29.444Z,17.00
2019-05-25T16:08:05.689Z,16.80
2019-05-25T16:10:41.995Z,16.70
2019-05-25T16:13:18.243Z,16.60
2019-05-25T16:15:54.448Z,16.60
2019-05-25T16:18:30.726Z,16.50
2019-05-25T16:21:06.861Z,16.60
2019-05-25T16:23:43.054Z,16.50
2019-05-25T16:26:19.193Z,16.50
2019-05-25T16:28:55.294Z,16.40
2019-05-25T16:31:31.405Z,16.30
2019-05-25T16:34:07.547Z,16.40
2019-05-25T16:36:43.724Z,16.20
2019-05-25T16:39:20.222Z,16.00
2019-05-25T16:41:56.443Z,16.00
2019-05-25T16:44:32.983Z,15.90
2019-05-25T16:47:09.215Z,15.90
2019-05-25T16:49:45.352Z,15.80
2019-05-25T16:52:21.625Z,15.90
2019-05-25T16:54:58.667Z,15.80
2019-05-25T16:57:34.870Z,15.80
2019-05-25T17:00:11.609Z,15.80
2019-05-25T17:02:47.831Z,15.70
2019-05-25T17:05:23.996Z,15.80
2019-05-25T17:08:00.243Z,15.80
2019-05-25T17:10:36.456Z,15.80
2019-05-25T17:13:12.719Z,15.70
2019-05-25T17:15:48.938Z,15.70
2019-05-25T17:18:25.187Z,15.70
2019-05-25T17:21:01.255Z,15.60
2019-05-25T17:23:37.432Z,15.60
2019-05-25T17:26:13.572Z,15.60
2019-05-25T17:28:49.730Z,15.60
2019-05-25T17:31:25.945Z,15.60
2019-05-25T17:34:02.184Z,15.60
2019-05-25T17:36:38.329Z,15.60
2019-05-25T17:39:14.738Z,15.60
2019-05-25T17:41:51.021Z,15.50
2019-05-25T17:44:27.116Z,15.40
2019-05-25T17:47:03.327Z,15.40
2019-05-25T17:49:39.594Z,15.40
2019-05-25T17:52:15.810Z,15.30
2019-05-25T17:54:52.057Z,15.20
2019-05-25T17:57:28.197Z,15.10
2019-05-25T18:00:06.724Z,15.20
2019-05-25T18:02:43.105Z,15.10
2019-05-25T18:05:19.344Z,15.10
2019-05-25T18:07:55.556Z,15.10
2019-05-25T18:10:31.734Z,15.10
2019-05-25T18:13:07.958Z,15.00
2019-05-25T18:15:44.191Z,15.00
2019-05-25T18:18:20.326Z,14.90
2019-05-25T18:20:56.493Z,14.80
2019-05-25T18:23:32.709Z,14.70
2019-05-25T18:26:08.977Z,14.50
2019-05-25T18:28:45.222Z,14.50
2019-05-25T18:31:21.444Z,14.30
2019-05-25T18:33:57.615Z,14.30
2019-05-25T18:36:33.766Z,14.30
2019-05-25T18:39:10.016Z,14.30
2019-05-25T18:41:46.165Z,14.10
2019-05-25T18:44:24.212Z,14.10
2019-05-25T18:47:00.352Z,14.00
2019-05-25T18:49:36.614Z,13.90
2019-05-25T18:52:12.749Z,13.80
2019-05-25T18:54:49.009Z,13.70
2019-05-25T18:57:25.611Z,13.60
2019-05-25T19:00:01.877Z,13.50
2019-05-25T19:02:38.194Z,13.40
2019-05-25T19:05:14.376Z,13.30
2019-05-25T19:07:50.581Z,13.30
2019-05-25T19:10:26.767Z,13.20
2019-05-25T19:13:02.905Z,13.10
2019-05-25T19:15:39.165Z,13.10
2019-05-25T19:18:15.311Z,13.00
2019-05-25T19:20:51.574Z,13.00
2019-05-25T19:23:27.843Z,12.90
2019-05-25T19:26:04.068Z,12.80
2019-05-25T19:28:40.261Z,12.80
2019-05-25T19:31:16.425Z,12.70
2019-05-25T19:33:52.660Z,12.60
2019-05-25T19:36:28.828Z,12.50
2019-05-25T19:39:07.812Z,12.40
2019-05-25T19:41:44.003Z,12.20
2019-05-25T19:44:20.218Z,12.00
2019-05-25T19:46:56.379Z,11.80
2019-05-25T19:49:32.508Z,11.80
2019-05-25T19:52:08.684Z,11.70
2019-05-25T19:54:45.013Z,11.70
2019-05-25T19:57:21.247Z,11.60
2019-05-25T19:59:57.459Z,11.40
2019-05-25T20:02:33.706Z,11.20
2019-05-25T20:05:16.750Z,11.10
2019-05-25T20:07:48.383Z,11.00
2019-05-25T20:10:24.588Z,10.90
2019-05-25T20:13:00.843Z,10.80
2019-05-25T20:15:37.043Z,10.70
2019-05-25T20:18:13.224Z,10.60
2019-05-25T20:20:49.360Z,10.50
2019-05-25T20:23:25.623Z,10.40
2019-05-25T20:26:01.836Z,10.30
2019-05-25T20:28:38.071Z,10.30
2019-05-25T20:31:14.212Z,10.20
2019-05-25T20:33:50.467Z,10.20
2019-05-25T20:36:26.681Z,10.30
2019-05-25T20:39:02.929Z,10.30
2019-05-25T20:41:39.136Z,10.40
2019-05-25T20:44:15.416Z,10.50
2019-05-25T20:46:51.648Z,10.50
2019-05-25T20:49:27.924Z,10.50
2019-05-25T20:52:04.124Z,10.30
2019-05-25T20:54:40.313Z,10.20
2019-05-25T20:57:16.533Z,10.20
2019-05-25T20:59:52.789Z,10.20
2019-05-25T21:02:29.005Z,10.20
2019-05-25T21:05:08.239Z,10.20
2019-05-25T21:07:44.660Z,10.20
2019-05-25T21:10:40.082Z,10.10
2019-05-25T21:13:16.326Z,10.10
2019-05-25T21:15:52.641Z,10.00
2019-05-25T21:18:28.936Z,10.00
2019-05-25T21:21:05.083Z,10.00
2019-05-25T21:23:41.421Z,9.90
2019-05-25T21:26:17.630Z,9.90
2019-05-25T21:28:53.724Z,9.90
2019-05-25T21:31:29.851Z,9.80
2019-05-25T21:34:06.015Z,9.80
2019-05-25T21:36:43.269Z,9.80
2019-05-25T21:39:19.746Z,9.80
2019-05-25T21:41:55.957Z,9.80
2019-05-25T21:44:32.210Z,9.70
2019-05-25T21:47:08.427Z,9.70
2019-05-25T21:49:44.668Z,9.60
2019-05-25T21:52:20.758Z,9.60
2019-05-25T21:54:56.987Z,9.50
2019-05-25T21:57:33.194Z,9.50
2019-05-25T22:00:12.975Z,9.50
2019-05-25T22:02:49.255Z,9.50
2019-05-25T22:05:25.499Z,9.50
2019-05-25T22:08:01.757Z,9.50
2019-05-25T22:10:37.960Z,9.50
2019-05-25T22:13:26.902Z,9.60
2019-05-25T22:15:51.982Z,9.60
2019-05-25T22:18:28.158Z,9.60
2019-05-25T22:21:04.385Z,9.70
2019-05-25T22:23:40.641Z,9.60
2019-05-25T22:26:16.848Z,9.50
2019-05-25T22:28:52.951Z,9.40
2019-05-25T22:31:29.218Z,9.30
2019-05-25T22:34:05.393Z,9.30
2019-05-25T22:36:41.679Z,9.20
2019-05-25T22:39:17.839Z,9.10
2019-05-25T22:41:53.979Z,9.10
2019-05-25T22:44:30.260Z,9.10
2019-05-25T22:47:06.507Z,9.10
2019-05-25T22:49:42.709Z,9.10
2019-05-25T22:52:18.925Z,9.10
2019-05-25T22:54:55.196Z,9.10
2019-05-25T22:57:31.406Z,9.00
2019-05-25T23:00:09.531Z,8.90
2019-05-25T23:02:45.712Z,8.90
2019-05-25T23:05:21.882Z,8.90
2019-05-25T23:07:58.119Z,8.80
2019-05-25T23:10:34.291Z,8.70
2019-05-25T23:13:10.436Z,8.70
2019-05-25T23:15:46.676Z,8.70
2019-05-25T23:18:22.817Z,8.60
2019-05-25T23:20:59.060Z,8.60
2019-05-25T23:23:35.279Z,8.60
2019-05-25T23:26:11.604Z,8.60
2019-05-25T23:28:47.961Z,8.70
2019-05-25T23:31:24.204Z,8.80
2019-05-25T23:34:00.413Z,8.90
2019-05-25T23:36:36.595Z,8.90
2019-05-25T23:39:12.809Z,8.80
2019-05-25T23:41:49.066Z,8.80
2019-05-25T23:44:25.288Z,8.80
2019-05-25T23:47:01.541Z,8.70
2019-05-25T23:49:37.696Z,8.60
2019-05-25T23:52:13.920Z,8.50
2019-05-25T23:54:50.052Z,8.50
2019-05-25T23:57:26.305Z,8.40
